createdAt,value
2022-10-17T00:03:43.039Z,6.40
2022-10-17T00:13:49.371Z,6.40
2022-10-17T00:23:55.081Z,6.40
2022-10-17T00:33:58.318Z,6.30
2022-10-17T00:44:06.264Z,6.20
2022-10-17T00:54:13.152Z,6.10
2022-10-17T01:04:18.780Z,6.10
2022-10-17T01:14:31.085Z,6.00
2022-10-17T01:24:51.296Z,5.90
2022-10-17T01:35:01.494Z,5.90
2022-10-17T01:45:12.938Z,5.90
2022-10-17T01:55:23.988Z,6.00
2022-10-17T02:05:32.471Z,5.90
2022-10-17T02:16:04.274Z,5.80
2022-10-17T02:26:12.660Z,5.70
2022-10-17T02:36:22.706Z,5.60
2022-10-17T02:46:28.499Z,5.60
2022-10-17T02:56:38.599Z,5.50
2022-10-17T03:06:42.795Z,5.40
2022-10-17T03:16:47.577Z,5.30
2022-10-17T03:26:53.508Z,5.20
2022-10-17T03:36:58.529Z,5.20
2022-10-17T03:47:04.666Z,5.20
2022-10-17T03:57:09.517Z,5.10
2022-10-17T04:07:13.300Z,5.10
2022-10-17T04:17:21.463Z,5.10
2022-10-17T04:27:25.508Z,4.90
2022-10-17T04:37:31.943Z,5.00
2022-10-17T04:47:38.466Z,4.90
2022-10-17T04:57:43.268Z,4.80
2022-10-17T05:07:54.105Z,4.70
2022-10-17T05:18:03.148Z,4.70
2022-10-17T05:28:07.085Z,4.70
2022-10-17T05:38:11.865Z,4.90
2022-10-17T05:48:18.091Z,5.10
2022-10-17T05:58:45.437Z,5.50
2022-10-17T06:08:52.096Z,6.00
2022-10-17T06:19:02.112Z,6.60
2022-10-17T06:29:06.123Z,7.40
2022-10-17T06:39:14.696Z,9.60
2022-10-17T06:49:24.455Z,11.40
2022-10-17T06:59:35.394Z,14.20
2022-10-17T07:09:46.957Z,17.50
2022-10-17T07:19:53.728Z,19.90
2022-10-17T07:29:57.095Z,23.30
2022-10-17T07:40:12.785Z,26.90
2022-10-17T07:50:17.157Z,29.70
2022-10-17T08:00:21.917Z,31.40
2022-10-17T08:10:29.339Z,33.20
2022-10-17T08:20:33.960Z,35.70
2022-10-17T08:30:37.309Z,37.30
2022-10-17T08:40:42.957Z,37.80
2022-10-17T08:50:51.360Z,37.40
2022-10-17T09:01:11.910Z,39.40
2022-10-17T09:11:36.017Z,40.20
2022-10-17T09:21:47.324Z,41.10
2022-10-17T09:31:59.959Z,43.10
2022-10-17T09:42:04.855Z,43.50
2022-10-17T09:52:16.586Z,45.90
2022-10-17T10:02:25.142Z,48.20
2022-10-17T10:12:31.076Z,47.80
2022-10-17T10:22:35.974Z,50.10
2022-10-17T10:32:39.459Z,50.70
2022-10-17T10:42:44.165Z,51.90
2022-10-17T10:52:53.558Z,52.40
2022-10-17T11:03:05.679Z,51.10
2022-10-17T11:13:19.857Z,52.10
2022-10-17T11:23:30.182Z,51.10
2022-10-17T11:33:51.239Z,51.60
2022-10-17T11:44:00.932Z,51.30
2022-10-17T11:54:12.918Z,53.20
2022-10-17T12:04:32.155Z,51.20
2022-10-17T12:14:42.473Z,51.50
2022-10-17T12:24:57.083Z,49.40
2022-10-17T12:35:01.359Z,48.70
2022-10-17T12:45:56.042Z,47.60
2022-10-17T12:56:01.737Z,50.30
2022-10-17T13:06:08.738Z,48.70
2022-10-17T13:16:29.742Z,48.70
2022-10-17T13:26:34.511Z,48.70
2022-10-17T13:36:38.041Z,47.40
2022-10-17T13:46:44.140Z,47.20
2022-10-17T13:56:47.487Z,47.00
2022-10-17T14:06:52.588Z,44.10
2022-10-17T14:16:56.319Z,40.60
2022-10-17T14:27:01.898Z,33.40
2022-10-17T14:37:11.812Z,29.20
2022-10-17T14:47:42.231Z,26.60
2022-10-17T14:57:46.880Z,24.60
2022-10-17T15:07:51.874Z,23.40
2022-10-17T15:17:55.131Z,22.60
2022-10-17T15:28:00.077Z,21.60
2022-10-17T15:38:03.403Z,20.40
2022-10-17T15:48:09.182Z,19.20
2022-10-17T15:58:16.550Z,18.10
2022-10-17T16:08:21.153Z,17.00
2022-10-17T16:18:24.403Z,16.10
2022-10-17T16:28:29.206Z,15.40
2022-10-17T16:38:32.576Z,14.80
2022-10-17T16:48:37.286Z,14.10
2022-10-17T16:58:44.011Z,13.50
2022-10-17T17:08:48.967Z,13.10
2022-10-17T17:18:56.230Z,12.60
2022-10-17T17:29:02.275Z,12.20
2022-10-17T17:39:08.680Z,11.80
2022-10-17T17:49:16.175Z,11.30
2022-10-17T17:59:19.484Z,11.00
2022-10-17T18:09:24.458Z,10.80
2022-10-17T18:19:28.424Z,10.50
2022-10-17T18:29:33.627Z,10.30
2022-10-17T18:39:37.227Z,10.10
2022-10-17T18:49:42.942Z,9.90
2022-10-17T18:59:47.595Z,9.60
2022-10-17T19:09:52.321Z,9.40
2022-10-17T19:19:55.936Z,9.20
2022-10-17T19:30:00.570Z,9.00
2022-10-17T19:40:04.573Z,8.90
2022-10-17T19:50:10.030Z,8.90
2022-10-17T20:00:14.901Z,8.80
2022-10-17T20:10:21.588Z,8.60
2022-10-17T20:20:25.018Z,8.40
2022-10-17T20:30:29.826Z,8.10
2022-10-17T20:40:35.601Z,7.90
2022-10-17T20:50:40.651Z,7.70
2022-10-17T21:00:44.421Z,7.50
2022-10-17T21:10:48.980Z,7.40
2022-10-17T21:20:52.682Z,7.20
2022-10-17T21:30:57.351Z,7.00
2022-10-17T21:41:00.602Z,6.80
2022-10-17T21:51:07.519Z,6.80
2022-10-17T22:01:13.963Z,6.60
2022-10-17T22:11:21.498Z,6.60
2022-10-17T22:21:25.214Z,6.40
2022-10-17T22:31:29.955Z,6.20
2022-10-17T22:41:33.405Z,6.20
2022-10-17T22:51:37.992Z,6.00
2022-10-17T23:01:41.330Z,5.80
2022-10-17T23:11:45.931Z,5.70
2022-10-17T23:21:49.169Z,5.60
2022-10-17T23:31:56.973Z,5.50
2022-10-17T23:42:00.215Z,5.40
2022-10-17T23:52:05.138Z,5.20
